Country
Station

 

Weather  for  Millinocket, Millinocket Municipal Airport  -  United States    United States

  
7 °C (45 °F)
    
 
 

Current METAR for Millinocket, Millinocket Municipal Airport is :

KMLT 192053Z AUTO 00000KT 10SM OVC050 07/M04 A2967 RMK AO2 SLP054 T00721039 53005

 

This is a report for Millinocket, Millinocket Municipal Airport - United States.
 
The report was made 25 minutes ago, at 20:53 UTC .
The wind was calm.
 
The temperature was 7 °C (45 °F), with a dew-point at -4 °C (25 °F).
The atmospheric pressure was 1005 hPa (29.67 inHg).
The relative humidity was 45.3%.
 
The sky was overcast from a height of 1524 meter (5000 feet)
 
The overall visibility was 16.1 kilometers (10.0 miles).
 

 
 
 
 

Country :   A   B   C   D   E   F   G   H   I   J   K   L   M   N   O   P   Q   R   S   T   U   V   W   Y   Z

 

Site Info  |  Disclaimer  |  Credits  |  Privacy
Contact us  |  Add to favorites
© 2013-2018 METARs - All rights reserved